Terminal Aerodrome Forecast
Issued by NWS

Home | Current Version | Previous Version | Text Only | Print | Product List | Glossary On
Versions: 1 2 3 4 5 6 7 8 9 10 11 12 13 14 15 16 17 18 19 20 21 22 23 24
000
FTUS44 KTSA 271100
TAFXNA
TAF
KXNA 271137Z 2712/2812 00000KT P6SM SCT200
     FM271800 20006KT P6SM SCT035 SCT200
     FM280600 16003KT P6SM BKN150
      TEMPO 2809/2812 3SM BR=

USA.gov is the U.S. government's official web portal to all federal, state and local government web resources and services.